Time;durP1;ratioP1;P1;durP2;ratioP2;P2;SDS_P1;SDS_P2;PMS_P1;PMS_P2;Temp;Humidity;BMP_temperature;BMP_pressure;BME280_temperature;BME280_humidity;BME280_pressure;Samples;Min_cycle;Max_cycle;Signal;HPM_P1;HPM_P2
2022/04/19 00:01:06;;;;;;;3.43;1.30;;;10.20;49.50;;;;;;7371553;19;20400;-38
2022/04/19 00:03:41;;;;;;;2.20;1.90;;;10.20;49.70;;;;;;7368242;19;20833;-37
2022/04/19 00:06:10;;;;;;;4.40;1.50;;;10.20;49.40;;;;;;7373762;19;20371;-38
2022/04/19 00:08:42;;;;;;;3.87;2.00;;;10.20;49.40;;;;;;7370336;19;20380;-38
2022/04/19 00:11:14;;;;;;;2.70;1.40;;;10.30;49.40;;;;;;7373150;19;21005;-38
2022/04/19 00:13:48;;;;;;;3.00;1.53;;;10.20;49.80;;;;;;7373978;19;20933;-38
2022/04/19 00:16:22;;;;;;;2.73;1.47;;;10.20;49.90;;;;;;7375031;19;20890;-38
2022/04/19 00:18:54;;;;;;;2.20;1.60;;;10.00;49.30;;;;;;7367211;19;20494;-38
2022/04/19 00:21:24;;;;;;;2.90;1.50;;;10.00;49.80;;;;;;7367220;19;20981;-38
2022/04/19 00:23:58;;;;;;;3.70;2.03;;;9.70;51.00;;;;;;7373408;19;20368;-38
2022/04/19 00:26:28;;;;;;;2.10;1.60;;;9.80;51.80;;;;;;7363865;19;20413;-38
2022/04/19 00:29:00;;;;;;;2.87;1.70;;;9.70;52.10;;;;;;7372416;19;20173;-38
2022/04/19 00:31:32;;;;;;;3.33;1.80;;;9.80;52.10;;;;;;7370013;19;20375;-38
2022/04/19 00:34:01;;;;;;;2.00;1.60;;;9.60;52.70;;;;;;7376290;19;20881;-38
2022/04/19 00:36:33;;;;;;;2.88;1.50;;;9.70;52.40;;;;;;7371790;19;20436;-38
2022/04/19 00:39:03;;;;;;;2.47;1.90;;;9.60;52.20;;;;;;7372138;19;20266;-38
2022/04/19 00:41:37;;;;;;;2.03;1.60;;;9.70;52.30;;;;;;7369814;19;20548;-38
2022/04/19 00:44:09;;;;;;;2.83;2.03;;;9.80;52.10;;;;;;7371807;19;20407;-39
2022/04/19 00:46:41;;;;;;;2.40;1.77;;;9.80;52.10;;;;;;7364682;19;20392;-39
2022/04/19 00:49:11;;;;;;;4.93;1.93;;;9.60;52.10;;;;;;7373023;19;20986;-39
2022/04/19 00:51:41;;;;;;;3.40;1.80;;;9.50;53.60;;;;;;7371084;19;20403;-39
2022/04/19 00:54:14;;;;;;;3.95;1.98;;;9.60;52.10;;;;;;7369616;19;20380;-39
2022/04/19 00:56:46;;;;;;;2.67;1.60;;;9.70;52.30;;;;;;7371251;19;20514;-38
2022/04/19 00:59:16;;;;;;;3.77;1.73;;;9.80;52.20;;;;;;7368018;19;20396;-39
2022/04/19 01:01:50;;;;;;;2.70;2.10;;;9.80;52.10;;;;;;7370987;19;20405;-38
2022/04/19 01:04:23;;;;;;;2.55;2.00;;;9.80;51.90;;;;;;7369118;19;20386;-38
2022/04/19 01:06:55;;;;;;;3.97;2.60;;;9.80;52.20;;;;;;7374205;19;20138;-39
2022/04/19 01:09:26;;;;;;;3.42;2.25;;;9.70;52.00;;;;;;7372101;19;20372;-39
2022/04/19 01:14:43;;;;;;;3.60;2.25;;;9.40;53.20;;;;;;7370717;19;20147;-38
2022/04/19 01:17:19;;;;;;;7.05;2.80;;;9.40;53.10;;;;;;7364617;19;20186;-38
2022/04/19 01:19:51;;;;;;;4.63;2.50;;;9.30;53.40;;;;;;7371214;19;20651;-39
2022/04/19 01:22:26;;;;;;;3.42;2.28;;;9.40;53.40;;;;;;7369838;19;21165;-38
2022/04/19 01:24:58;;;;;;;5.82;2.13;;;9.60;53.20;;;;;;7369637;19;20146;-38
2022/04/19 01:27:28;;;;;;;3.13;2.25;;;9.60;53.40;;;;;;7365835;19;20131;-38
2022/04/19 01:30:01;;;;;;;3.23;2.30;;;9.60;53.60;;;;;;7327784;19;20190;-38
2022/04/19 01:32:33;;;;;;;3.15;2.25;;;9.60;53.40;;;;;;7368057;19;20973;-39
2022/04/19 01:35:11;;;;;;;4.68;2.97;;;9.50;52.90;;;;;;7367496;19;20151;-38
2022/04/19 01:37:53;;;;;;;4.13;2.35;;;9.40;53.40;;;;;;7369066;19;20152;-38
2022/04/19 01:40:33;;;;;;;3.28;2.75;;;9.10;54.10;;;;;;7368448;19;20123;-39
2022/04/19 01:43:07;;;;;;;2.10;1.77;;;8.90;54.40;;;;;;7370371;19;20136;-39
2022/04/19 01:45:56;;;;;;;3.30;2.00;;;8.80;54.40;;;;;;7361065;19;20604;-38
2022/04/19 01:48:27;;;;;;;2.95;1.90;;;8.60;54.80;;;;;;7370919;19;20132;-38
2022/04/19 01:50:57;;;;;;;2.70;2.28;;;8.60;55.80;;;;;;7370218;19;20124;-39
2022/04/19 01:53:31;;;;;;;2.03;1.83;;;8.80;55.50;;;;;;7366656;19;20720;-38
2022/04/19 01:56:03;;;;;;;4.93;2.40;;;8.80;55.60;;;;;;7369345;19;20165;-38
2022/04/19 01:58:51;;;;;;;3.03;2.03;;;9.00;55.30;;;;;;7371175;19;20143;-38
2022/04/19 02:01:20;;;;;;;3.25;2.60;;;9.00;55.50;;;;;;7365612;19;20153;-39
2022/04/19 02:03:50;;;;;;;3.80;2.17;;;9.00;55.10;;;;;;7364012;19;20132;-37
2022/04/19 02:06:24;;;;;;;4.70;3.10;;;8.80;54.70;;;;;;7370579;19;20130;-39
2022/04/19 02:09:00;;;;;;;3.28;2.35;;;8.60;55.40;;;;;;7368221;19;20940;-38
2022/04/19 02:11:30;;;;;;;3.13;2.50;;;8.80;55.80;;;;;;7369829;19;20135;-39
2022/04/19 02:14:26;;;;;;;2.47;2.22;;;8.70;56.10;;;;;;7365711;19;20681;-39
2022/04/19 02:17:01;;;;;;;7.05;2.60;;;8.70;55.60;;;;;;7366132;19;20585;-39
2022/04/19 02:19:33;;;;;;;2.55;2.35;;;8.60;55.70;;;;;;7369803;19;20179;-39
2022/04/19 02:22:06;;;;;;;2.25;2.05;;;8.50;56.00;;;;;;7365987;19;20552;-39
2022/04/19 02:24:41;;;;;;;2.50;2.10;;;8.50;56.30;;;;;;7364835;19;20137;-37
2022/04/19 02:27:12;;;;;;;3.53;2.85;;;8.40;56.60;;;;;;7368577;19;20561;-38
2022/04/19 02:29:41;;;;;;;2.75;2.28;;;8.40;57.00;;;;;;7376878;19;20598;-38
2022/04/19 02:32:12;;;;;;;3.47;2.60;;;8.50;57.00;;;;;;7372886;19;20713;-38
2022/04/19 02:34:43;;;;;;;3.13;2.55;;;8.70;56.60;;;;;;7374162;19;20135;-38
2022/04/19 02:37:15;;;;;;;5.60;2.70;;;8.50;56.90;;;;;;7377253;19;20131;-38
2022/04/19 02:39:48;;;;;;;3.03;2.50;;;8.20;57.40;;;;;;7377069;19;20530;-38
2022/04/19 02:42:23;;;;;;;2.90;2.10;;;8.10;57.70;;;;;;7372337;19;20131;-38
2022/04/19 02:44:53;;;;;;;3.03;2.63;;;8.20;57.50;;;;;;7373229;19;20143;-38
2022/04/19 02:47:25;;;;;;;3.95;2.42;;;8.30;57.20;;;;;;7370007;19;20139;-38
2022/04/19 02:49:55;;;;;;;4.60;2.60;;;8.30;57.10;;;;;;7376312;19;20606;-38
2022/04/19 02:52:25;;;;;;;2.65;2.17;;;8.50;56.70;;;;;;7375005;19;20412;-38
2022/04/19 02:55:00;;;;;;;6.70;2.65;;;8.40;56.10;;;;;;7376857;19;20135;-38
2022/04/19 02:57:33;;;;;;;2.63;2.25;;;8.40;56.20;;;;;;7374522;19;20126;-38
2022/04/19 03:00:09;;;;;;;2.20;1.92;;;8.40;56.40;;;;;;7372791;19;20130;-38
2022/04/19 03:02:39;;;;;;;3.67;2.70;;;8.20;57.30;;;;;;7371722;19;20127;-38
2022/04/19 03:05:12;;;;;;;3.22;2.15;;;8.00;58.10;;;;;;7377245;19;20135;-38
2022/04/19 03:07:46;;;;;;;2.95;2.00;;;8.30;57.50;;;;;;7373738;19;20218;-38
2022/04/19 03:10:21;;;;;;;3.53;2.13;;;8.20;57.50;;;;;;7371567;19;20236;-37
2022/04/19 03:12:54;;;;;;;2.08;1.80;;;7.90;58.20;;;;;;7372584;19;20234;-37
2022/04/19 03:15:28;;;;;;;3.25;2.42;;;8.00;57.20;;;;;;7373507;19;20131;-37
2022/04/19 03:17:59;;;;;;;3.63;2.40;;;8.00;56.90;;;;;;7370533;19;20143;-37
2022/04/19 03:20:33;;;;;;;2.85;2.55;;;8.10;56.80;;;;;;7372074;19;20201;-37
2022/04/19 03:28:36;;;;;;;3.03;2.10;;;8.10;57.20;;;;;;7377165;19;20807;-38
2022/04/19 03:31:08;;;;;;;3.65;1.75;;;8.20;56.70;;;;;;7368276;19;20135;-38
2022/04/19 03:33:42;;;;;;;2.60;1.92;;;8.00;56.50;;;;;;7370660;19;20156;-37
2022/04/19 03:36:12;;;;;;;3.05;2.10;;;7.90;56.90;;;;;;7372256;19;20620;-38
2022/04/19 03:38:44;;;;;;;3.63;2.30;;;8.00;57.10;;;;;;7372514;19;20191;-38
2022/04/19 03:41:16;;;;;;;2.30;2.00;;;7.90;57.70;;;;;;7376265;19;20124;-37
2022/04/19 03:43:46;;;;;;;3.25;2.38;;;8.00;57.90;;;;;;7369457;19;20353;-38
2022/04/19 03:46:16;;;;;;;5.00;2.35;;;8.00;57.80;;;;;;7364772;19;20257;-38
2022/04/19 03:48:45;;;;;;;2.70;1.98;;;7.90;58.00;;;;;;7373002;19;20195;-38
2022/04/19 03:51:17;;;;;;;4.75;1.90;;;7.90;57.80;;;;;;7373471;19;20131;-38
2022/04/19 03:53:49;;;;;;;2.30;2.08;;;7.80;57.80;;;;;;7372459;19;20605;-38
2022/04/19 03:56:23;;;;;;;3.60;2.88;;;8.00;57.70;;;;;;7370494;19;20127;-38
2022/04/19 03:58:57;;;;;;;3.10;1.85;;;7.90;57.10;;;;;;7377106;19;21003;-38
2022/04/19 04:01:27;;;;;;;2.90;2.00;;;8.10;56.60;;;;;;7367573;19;20135;-38
2022/04/19 04:04:01;;;;;;;3.15;1.80;;;7.90;57.20;;;;;;7372246;19;20150;-39
2022/04/19 04:06:31;;;;;;;1.92;1.73;;;7.80;58.20;;;;;;7367391;19;20390;-38
2022/04/19 04:09:03;;;;;;;2.05;1.40;;;7.60;59.20;;;;;;7372891;19;20676;-38
2022/04/19 04:11:35;;;;;;;3.35;2.20;;;7.80;59.20;;;;;;7367603;19;20808;-39
2022/04/19 04:14:16;;;;;;;2.60;2.20;;;7.80;58.20;;;;;;7369200;19;20152;-38
2022/04/19 04:16:48;;;;;;;2.33;2.10;;;7.80;58.20;;;;;;7365849;19;20851;-37
2022/04/19 04:19:18;;;;;;;4.55;2.38;;;7.80;59.00;;;;;;7368139;19;20645;-38
2022/04/19 04:21:47;;;;;;;3.35;2.55;;;7.60;59.50;;;;;;7373998;19;20153;-38
2022/04/19 04:24:17;;;;;;;3.65;2.28;;;7.70;59.00;;;;;;7367194;19;20609;-38
2022/04/19 04:26:49;;;;;;;3.42;2.20;;;7.90;58.50;;;;;;7363865;19;20677;-37
2022/04/19 04:29:22;;;;;;;3.97;2.33;;;7.70;58.20;;;;;;7356447;19;20123;-36
2022/04/19 04:31:56;;;;;;;2.83;2.20;;;7.60;59.20;;;;;;7368923;19;20127;-37
2022/04/19 04:34:25;;;;;;;3.47;2.42;;;7.50;59.60;;;;;;7372049;19;20262;-36
2022/04/19 04:36:58;;;;;;;2.90;2.55;;;7.70;59.10;;;;;;7371865;19;20131;-37
2022/04/19 04:39:28;;;;;;;2.85;2.35;;;7.60;59.10;;;;;;7369401;19;20136;-37
2022/04/19 04:42:23;;;;;;;5.93;2.83;;;7.70;59.40;;;;;;7370620;19;20211;-36
2022/04/19 04:44:52;;;;;;;7.45;2.13;;;7.80;58.80;;;;;;7365129;19;20766;-37
2022/04/19 04:50:10;;;;;;;4.20;2.03;;;7.80;59.30;;;;;;7368726;19;20203;-38
2022/04/19 04:52:42;;;;;;;3.45;2.42;;;7.90;58.70;;;;;;7371469;19;20135;-38
2022/04/19 04:55:12;;;;;;;4.28;2.00;;;7.90;58.20;;;;;;7373900;19;20165;-37
2022/04/19 04:57:46;;;;;;;2.90;2.38;;;7.70;58.60;;;;;;7371912;19;20139;-37
2022/04/19 05:00:16;;;;;;;2.75;2.33;;;7.80;58.80;;;;;;7372904;19;20146;-37
2022/04/19 05:03:07;;;;;;;4.13;2.25;;;7.70;59.00;;;;;;7372619;19;20159;-37
2022/04/19 05:05:39;;;;;;;6.35;2.60;;;7.80;59.50;;;;;;7373888;19;20140;-37
2022/04/19 05:08:14;;;;;;;3.67;3.33;;;7.80;59.50;;;;;;7368643;19;20258;-38
2022/04/19 05:10:48;;;;;;;4.75;3.25;;;7.90;59.10;;;;;;7364573;19;20134;-37
2022/04/19 05:13:26;;;;;;;3.45;2.78;;;7.80;59.00;;;;;;7371855;19;20381;-37
2022/04/19 05:15:58;;;;;;;3.80;2.78;;;7.90;58.60;;;;;;7371131;19;20128;-37
2022/04/19 05:18:29;;;;;;;4.25;3.05;;;8.00;58.90;;;;;;7364131;19;21121;-37
2022/04/19 05:20:58;;;;;;;3.10;2.80;;;8.20;58.20;;;;;;7371368;19;20142;-38
2022/04/19 05:23:30;;;;;;;5.00;2.63;;;8.30;58.20;;;;;;7368180;19;20179;-38
2022/04/19 05:26:00;;;;;;;4.18;3.03;;;8.00;58.50;;;;;;7367344;19;20131;-38
2022/04/19 05:28:32;;;;;;;3.65;2.60;;;8.20;58.30;;;;;;7372050;19;20591;-38
2022/04/19 05:31:11;;;;;;;5.88;3.20;;;8.10;58.40;;;;;;7348621;19;20669;-37
2022/04/19 05:33:42;;;;;;;4.97;3.15;;;8.00;58.70;;;;;;7334052;19;20190;-37
2022/04/19 05:36:12;;;;;;;5.30;3.67;;;8.10;59.20;;;;;;7374815;19;20139;-37
2022/04/19 05:38:42;;;;;;;4.90;2.85;;;7.90;60.30;;;;;;7369379;19;20128;-37
2022/04/19 05:41:12;;;;;;;3.65;2.78;;;8.10;60.00;;;;;;7368072;19;20135;-37
2022/04/19 05:43:50;;;;;;;3.97;3.42;;;8.10;58.80;;;;;;7353984;19;20160;-37
2022/04/19 05:46:22;;;;;;;7.93;3.03;;;8.10;59.20;;;;;;7369827;19;20224;-37
2022/04/19 05:48:52;;;;;;;4.65;3.05;;;8.10;59.60;;;;;;7371900;19;20233;-37
2022/04/19 05:51:24;;;;;;;3.80;2.95;;;8.30;60.00;;;;;;7371711;19;20241;-37
2022/04/19 05:53:59;;;;;;;4.50;3.42;;;8.40;59.70;;;;;;7372728;19;20163;-37
2022/04/19 05:56:30;;;;;;;5.85;3.20;;;8.60;58.50;;;;;;7373438;19;20518;-37
2022/04/19 05:59:07;;;;;;;6.28;3.10;;;8.60;58.10;;;;;;7371817;19;20138;-37
2022/04/19 06:07:15;;;;;;;8.35;3.28;;;9.30;55.80;;;;;;7354458;19;20142;-40
2022/04/19 06:09:47;;;;;;;6.05;2.90;;;9.40;55.10;;;;;;7380937;19;20151;-39
2022/04/19 06:12:20;;;;;;;7.22;4.15;;;9.70;54.80;;;;;;7381121;19;20160;-39
2022/04/19 06:14:59;;;;;;;5.10;3.70;;;9.80;54.00;;;;;;7379556;19;20162;-37
2022/04/19 06:17:32;;;;;;;3.80;3.30;;;9.90;53.40;;;;;;7378709;19;20387;-39
2022/04/19 06:20:08;;;;;;;4.82;3.38;;;10.00;52.10;;;;;;7377274;19;20386;-39
2022/04/19 06:22:38;;;;;;;4.57;3.40;;;10.20;51.50;;;;;;7380966;19;20132;-37
2022/04/19 06:25:13;;;;;;;5.67;3.50;;;10.60;51.20;;;;;;7379047;19;20376;-36
2022/04/19 06:27:44;;;;;;;3.87;3.20;;;11.00;50.70;;;;;;7379190;19;20380;-37
2022/04/19 06:30:17;;;;;;;5.27;3.20;;;11.20;50.40;;;;;;7377565;19;20484;-36
2022/04/19 06:32:47;;;;;;;4.80;4.40;;;11.40;50.30;;;;;;7376667;19;20380;-38
2022/04/19 06:35:18;;;;;;;5.70;3.87;;;11.70;49.60;;;;;;7377961;19;20376;-39
2022/04/19 06:37:47;;;;;;;4.37;3.60;;;11.70;50.10;;;;;;7381451;19;20372;-37
2022/04/19 06:40:17;;;;;;;7.40;3.63;;;12.10;49.10;;;;;;7382332;19;20376;-37
2022/04/19 06:42:49;;;;;;;4.73;3.40;;;12.40;48.40;;;;;;7374699;19;20481;-37
2022/04/19 06:45:24;;;;;;;8.20;3.40;;;12.70;46.70;;;;;;7377328;19;20374;-37
2022/04/19 06:48:01;;;;;;;4.43;3.70;;;12.80;46.90;;;;;;7379573;19;20788;-37
2022/04/19 06:50:34;;;;;;;4.57;3.23;;;13.00;46.50;;;;;;7377524;19;20371;-37
2022/04/19 06:53:14;;;;;;;6.20;4.30;;;13.30;45.40;;;;;;7378234;19;20379;-36
2022/04/19 06:55:58;;;;;;;5.20;3.83;;;13.30;44.60;;;;;;7374921;19;20358;-38
2022/04/19 06:58:30;;;;;;;3.53;3.10;;;13.30;44.70;;;;;;7377593;19;20451;-37
2022/04/19 07:01:03;;;;;;;7.77;4.87;;;13.60;44.90;;;;;;7377689;19;20447;-37
2022/04/19 07:03:36;;;;;;;8.20;4.50;;;13.80;44.90;;;;;;7377539;19;20987;-38
2022/04/19 07:06:24;;;;;;;5.93;4.03;;;14.20;44.40;;;;;;7378844;19;20388;-37
2022/04/19 07:08:56;;;;;;;6.50;4.63;;;14.50;43.50;;;;;;7374936;19;20389;-37
2022/04/19 07:11:25;;;;;;;3.27;2.97;;;14.70;43.10;;;;;;7376963;19;20376;-37
2022/04/19 07:14:00;;;;;;;5.33;3.87;;;14.90;42.70;;;;;;7378440;19;20375;-38
2022/04/19 07:17:12;;;;;;;4.40;3.60;;;15.10;41.90;;;;;;7375204;19;20854;-38
2022/04/19 07:28:04;;;;;;;7.60;4.30;;;15.60;41.10;;;;;;7372511;19;20471;-38
2022/04/19 07:30:46;;;;;;;8.97;5.00;;;15.90;41.20;;;;;;7374927;19;20376;-38
2022/04/19 07:33:21;;;;;;;8.10;4.00;;;16.00;41.00;;;;;;7377328;19;20391;-37
2022/04/19 07:35:55;;;;;;;14.10;4.60;;;16.20;40.90;;;;;;7377086;19;20380;-37
2022/04/19 07:38:30;;;;;;;6.00;4.93;;;16.40;40.80;;;;;;7378163;19;20408;-37
2022/04/19 07:41:21;;;;;;;14.30;5.20;;;16.70;40.40;;;;;;7374190;19;20946;-37
2022/04/19 07:43:51;;;;;;;6.67;4.63;;;16.90;39.60;;;;;;7375238;19;20420;-37
2022/04/19 07:46:21;;;;;;;10.23;4.50;;;16.90;39.40;;;;;;7375509;19;20831;-37
2022/04/19 07:48:56;;;;;;;9.47;4.77;;;17.10;39.20;;;;;;7378459;19;20775;-37
2022/04/19 07:51:25;;;;;;;6.00;4.40;;;17.20;39.30;;;;;;7375242;19;21149;-37
2022/04/19 07:53:55;;;;;;;8.47;5.10;;;17.30;39.30;;;;;;7374015;19;20407;-37
2022/04/19 07:56:25;;;;;;;9.80;5.53;;;17.60;39.30;;;;;;7378272;19;20408;-37
2022/04/19 07:58:59;;;;;;;6.13;4.30;;;17.90;39.00;;;;;;7376496;19;20456;-37
2022/04/19 08:01:28;;;;;;;8.20;4.47;;;18.20;38.00;;;;;;7376683;19;20388;-38
2022/04/19 08:04:03;;;;;;;7.00;4.43;;;18.50;37.50;;;;;;7379156;19;20395;-38
2022/04/19 08:06:32;;;;;;;6.80;4.57;;;18.70;37.60;;;;;;7374089;19;20963;-37
2022/04/19 08:09:08;;;;;;;6.07;4.03;;;18.80;36.30;;;;;;7377304;19;20892;-37
2022/04/19 08:11:38;;;;;;;7.37;5.47;;;18.80;36.40;;;;;;7373647;19;20804;-37
2022/04/19 08:14:13;;;;;;;7.70;4.10;;;18.90;36.10;;;;;;7376291;19;20376;-38
2022/04/19 08:16:45;;;;;;;6.80;4.60;;;19.00;36.50;;;;;;7372102;19;20380;-37
2022/04/19 08:19:20;;;;;;;6.10;4.20;;;19.20;35.90;;;;;;7375156;19;20952;-37
2022/04/19 08:21:49;;;;;;;7.57;4.43;;;19.30;34.40;;;;;;7378504;19;20757;-38
2022/04/19 08:24:21;;;;;;;15.10;4.70;;;19.30;33.40;;;;;;7372815;19;20387;-37
2022/04/19 08:26:51;;;;;;;6.90;4.10;;;19.40;33.30;;;;;;7373530;19;20391;-39
2022/04/19 08:29:20;;;;;;;6.63;4.20;;;19.50;32.80;;;;;;7377476;19;20428;-39
2022/04/19 08:31:53;;;;;;;6.60;4.73;;;19.50;32.00;;;;;;7377037;19;20381;-39
2022/04/19 08:34:26;;;;;;;6.90;5.00;;;19.80;31.90;;;;;;7376023;19;20383;-39
2022/04/19 08:36:58;;;;;;;4.70;4.10;;;20.30;31.60;;;;;;7377010;19;20431;-39
2022/04/19 08:39:32;;;;;;;6.00;4.70;;;20.50;30.70;;;;;;7377726;19;20375;-39
2022/04/19 08:42:04;;;;;;;6.10;4.20;;;20.90;30.60;;;;;;7373475;19;20376;-39
2022/04/19 08:44:35;;;;;;;7.60;4.63;;;21.30;30.30;;;;;;7375038;19;20383;-39
2022/04/19 08:47:09;;;;;;;6.60;4.80;;;21.70;29.80;;;;;;7376107;19;20376;-40
2022/04/19 08:49:45;;;;;;;6.43;3.90;;;21.70;28.50;;;;;;7378897;19;20420;-39
2022/04/19 08:52:16;;;;;;;7.03;4.33;;;21.90;29.50;;;;;;7376891;19;20372;-40
2022/04/19 08:57:35;;;;;;;6.53;4.60;;;22.70;28.40;;;;;;7374571;19;20380;-37
2022/04/19 09:00:09;;;;;;;4.70;4.13;;;23.00;28.00;;;;;;7376013;19;20943;-38
2022/04/19 09:02:41;;;;;;;10.63;4.80;;;23.40;27.70;;;;;;7374608;19;20367;-38
2022/04/19 09:05:19;;;;;;;7.37;4.97;;;23.90;27.40;;;;;;7374778;19;20387;-38
2022/04/19 09:07:51;;;;;;;6.90;4.30;;;;;;;;;;7374185;19;20380;-38
2022/04/19 09:10:29;;;;;;;5.00;3.20;;;24.50;25.80;;;;;;7368316;19;20429;-38
2022/04/19 09:13:05;;;;;;;4.23;2.80;;;24.40;23.80;;;;;;7376064;19;20917;-38
2022/04/19 09:15:36;;;;;;;6.27;2.87;;;24.60;24.40;;;;;;7377454;19;20379;-38
2022/04/19 09:18:06;;;;;;;3.20;2.50;;;24.70;24.30;;;;;;7376593;19;20437;-39
2022/04/19 09:20:41;;;;;;;3.00;2.27;;;25.30;24.00;;;;;;7371941;19;20944;-39
2022/04/19 09:23:12;;;;;;;3.50;3.20;;;25.60;23.20;;;;;;7375152;19;20397;-39
2022/04/19 09:25:41;;;;;;;4.03;3.40;;;26.10;23.40;;;;;;7371998;19;20372;-39
2022/04/19 09:28:20;;;;;;;7.30;3.80;;;26.80;23.50;;;;;;7374990;19;20379;-39
2022/04/19 09:30:51;;;;;;;4.17;2.83;;;26.90;23.40;;;;;;7370332;19;21144;-39
2022/04/19 09:33:27;;;;;;;3.90;3.50;;;27.50;22.70;;;;;;7375377;19;20937;-39
2022/04/19 09:36:03;;;;;;;4.27;3.43;;;27.90;22.10;;;;;;7373587;19;20391;-39
2022/04/19 09:38:37;;;;;;;3.03;2.60;;;;;;;;;;7386602;19;20379;-39
2022/04/19 09:41:07;;;;;;;5.50;3.17;;;28.80;21.20;;;;;;7382694;19;20366;-39
2022/04/19 09:43:37;;;;;;;3.70;2.97;;;29.50;20.50;;;;;;7381360;19;20368;-40
2022/04/19 09:46:09;;;;;;;5.73;3.57;;;30.20;20.20;;;;;;7384528;19;20384;-40
2022/04/19 09:48:44;;;;;;;4.33;3.57;;;29.80;19.70;;;;;;7383089;19;20413;-40
2022/04/19 09:51:19;;;;;;;4.50;3.30;;;29.40;19.60;;;;;;7383981;19;20451;-40
2022/04/19 09:53:52;;;;;;;3.40;3.10;;;29.30;20.10;;;;;;7384051;19;20767;-40
2022/04/19 09:56:24;;;;;;;3.93;3.40;;;30.30;20.00;;;;;;7377850;19;20372;-40
2022/04/19 09:58:54;;;;;;;3.60;3.30;;;30.10;19.80;;;;;;7377876;19;20408;-40
2022/04/19 10:09:38;;;;;;;5.10;3.70;;;31.00;19.10;;;;;;7382015;19;20471;-40
2022/04/19 10:12:12;;;;;;;4.20;3.40;;;31.20;19.10;;;;;;7380451;19;20396;-40
2022/04/19 10:14:47;;;;;;;6.40;3.60;;;31.90;18.60;;;;;;7382825;19;20408;-40
2022/04/19 10:17:19;;;;;;;4.07;3.67;;;32.80;18.30;;;;;;7380632;19;20387;-40
2022/04/19 10:19:51;;;;;;;3.57;2.90;;;32.20;18.40;;;;;;7383578;19;20392;-40
2022/04/19 10:22:27;;;;;;;3.60;3.13;;;32.90;18.10;;;;;;7381778;19;20715;-40
2022/04/19 10:25:03;;;;;;;2.90;2.60;;;33.60;17.20;;;;;;7379804;19;20916;-39
2022/04/19 10:27:36;;;;;;;3.53;3.23;;;34.10;16.40;;;;;;7381133;19;20376;-41
2022/04/19 10:30:07;;;;;;;4.03;3.17;;;33.80;16.00;;;;;;7382451;19;20371;-41
2022/04/19 10:32:41;;;;;;;4.60;3.10;;;34.10;15.60;;;;;;7379667;19;20912;-41
2022/04/19 10:35:14;;;;;;;3.50;2.87;;;33.60;15.90;;;;;;7381831;19;20451;-41
2022/04/19 10:37:49;;;;;;;4.27;3.33;;;33.90;16.10;;;;;;7382704;19;20368;-41
2022/04/19 10:40:23;;;;;;;3.00;2.70;;;33.90;15.70;;;;;;7378724;19;20410;-41
2022/04/19 10:43:15;;;;;;;3.53;3.23;;;33.90;15.40;;;;;;7384141;19;20380;-42
2022/04/19 10:45:46;;;;;;;3.97;3.57;;;34.80;14.90;;;;;;7377482;19;20456;-41
2022/04/19 10:48:18;;;;;;;4.40;4.00;;;35.00;14.50;;;;;;7379480;19;20372;-41
2022/04/19 10:50:51;;;;;;;3.60;3.27;;;35.20;14.80;;;;;;7378249;19;20397;-41
2022/04/19 10:53:34;;;;;;;3.33;2.77;;;35.60;14.60;;;;;;7380414;19;20416;-43
2022/04/19 10:56:06;;;;;;;3.80;3.10;;;35.70;14.60;;;;;;7381105;19;20378;-43
2022/04/19 10:58:43;;;;;;;4.10;3.70;;;35.90;14.40;;;;;;7380689;19;20410;-42
2022/04/19 11:01:31;;;;;;;4.10;2.80;;;36.60;14.00;;;;;;7381493;19;20405;-43
2022/04/19 11:04:01;;;;;;;4.03;3.40;;;36.20;14.30;;;;;;7381448;19;20485;-42
2022/04/19 11:06:48;;;;;;;4.40;3.87;;;36.50;14.40;;;;;;7380811;19;20372;-42
2022/04/19 11:09:23;;;;;;;5.07;3.80;;;36.80;14.00;;;;;;7380321;19;20372;-43
2022/04/19 11:11:56;;;;;;;4.77;4.27;;;36.30;14.50;;;;;;7381935;19;20784;-41
2022/04/19 11:14:46;;;;;;;3.90;3.60;;;36.40;14.60;;;;;;7378099;19;20368;-42
2022/04/19 11:17:26;;;;;;;3.43;3.03;;;36.40;14.50;;;;;;7375322;19;20380;-42
2022/04/19 11:20:09;;;;;;;3.33;3.03;;;36.10;14.50;;;;;;7361166;19;20779;-41
2022/04/19 11:22:49;;;;;;;4.30;3.40;;;35.80;14.60;;;;;;7379690;19;20376;-41
2022/04/19 11:25:39;;;;;;;4.87;4.37;;;35.10;15.20;;;;;;7376453;19;20376;-41
2022/04/19 11:28:25;;;;;;;3.60;3.30;;;35.10;15.10;;;;;;7377678;19;21646;-41
2022/04/19 11:31:13;;;;;;;5.07;3.70;;;34.40;15.30;;;;;;7376799;19;20986;-41
2022/04/19 11:33:43;;;;;;;3.50;3.10;;;34.00;15.50;;;;;;7377638;19;20372;-41
2022/04/19 11:36:18;;;;;;;3.67;3.30;;;34.70;14.60;;;;;;7375640;19;20387;-41
2022/04/19 11:38:52;;;;;;;3.47;3.17;;;35.20;14.50;;;;;;7372518;19;20379;-41
2022/04/19 11:46:57;;;;;;;2.70;2.50;;;36.30;13.60;;;;;;7373758;19;20404;-43
2022/04/19 11:49:35;;;;;;;4.93;3.30;;;36.80;13.80;;;;;;7378629;19;21088;-42
2022/04/19 11:52:15;;;;;;;4.03;3.63;;;37.10;13.50;;;;;;7379660;19;20379;-42
2022/04/19 11:54:49;;;;;;;6.40;3.43;;;36.90;13.60;;;;;;7376908;19;20942;-41
2022/04/19 11:57:21;;;;;;;5.83;3.63;;;36.80;13.60;;;;;;7379586;19;20377;-41
2022/04/19 11:59:54;;;;;;;4.73;3.67;;;36.70;13.90;;;;;;7376815;19;20426;-42
2022/04/19 12:02:24;;;;;;;4.40;4.00;;;36.90;14.00;;;;;;7378920;19;20380;-43
2022/04/19 12:04:59;;;;;;;3.70;3.40;;;37.50;13.80;;;;;;7377472;19;20368;-42
2022/04/19 12:07:29;;;;;;;3.77;3.17;;;37.00;13.70;;;;;;7375336;19;20522;-42
2022/04/19 12:10:00;;;;;;;4.47;3.30;;;37.70;13.50;;;;;;7378181;19;20392;-42
2022/04/19 12:12:36;;;;;;;3.73;3.43;;;38.00;13.40;;;;;;7372516;19;20383;-42
2022/04/19 12:15:13;;;;;;;5.13;3.50;;;37.40;13.40;;;;;;7373419;19;20371;-42
2022/04/19 12:17:48;;;;;;;4.20;3.40;;;37.60;14.00;;;;;;7374368;19;20472;-42
2022/04/19 12:20:20;;;;;;;4.40;4.00;;;37.50;13.50;;;;;;7373059;19;20395;-42
2022/04/19 12:22:52;;;;;;;5.37;4.17;;;38.00;13.20;;;;;;7376130;19;20464;-42
2022/04/19 12:25:25;;;;;;;4.27;3.87;;;38.10;13.50;;;;;;7371797;19;20397;-42
2022/04/19 12:28:00;;;;;;;3.70;3.30;;;38.00;13.20;;;;;;7374201;19;20375;-42
2022/04/19 12:30:31;;;;;;;4.73;3.40;;;38.10;14.00;;;;;;7374661;19;20387;-42
2022/04/19 12:33:03;;;;;;;3.77;3.47;;;38.60;13.30;;;;;;7376920;19;20724;-42
2022/04/19 12:35:37;;;;;;;4.50;4.10;;;39.50;13.00;;;;;;7374101;19;20404;-42
2022/04/19 12:38:13;;;;;;;5.90;3.10;;;38.60;13.10;;;;;;7375102;19;20910;-42
2022/04/19 12:40:43;;;;;;;4.10;3.70;;;38.40;13.00;;;;;;7377415;19;20372;-42
2022/04/19 12:43:18;;;;;;;3.87;3.10;;;38.10;12.90;;;;;;7374162;19;20377;-43
2022/04/19 12:45:49;;;;;;;3.77;3.40;;;37.70;14.40;;;;;;7361300;19;20376;-43
2022/04/19 12:48:22;;;;;;;6.60;3.90;;;36.80;13.70;;;;;;7370124;19;20396;-42
2022/04/19 12:51:02;;;;;;;4.03;3.57;;;35.90;14.00;;;;;;7366229;19;20761;-42
2022/04/19 12:53:36;;;;;;;3.80;3.47;;;36.50;14.20;;;;;;7372443;19;20844;-42
2022/04/19 12:56:41;;;;;;;4.73;4.20;;;37.20;13.90;;;;;;7370205;19;20444;-42
2022/04/19 12:59:15;;;;;;;3.70;3.40;;;37.30;13.60;;;;;;7375052;19;20364;-42
2022/04/19 13:01:47;;;;;;;3.90;3.50;;;36.70;13.60;;;;;;7367407;19;20375;-42
2022/04/19 13:04:16;;;;;;;3.73;3.20;;;36.80;13.50;;;;;;7363057;19;20384;-42
2022/04/19 13:12:19;;;;;;;4.60;3.73;;;37.50;13.50;;;;;;7371291;19;20388;-42
2022/04/19 13:14:55;;;;;;;4.20;3.80;;;37.60;13.40;;;;;;7364889;19;20379;-42
2022/04/19 13:17:26;;;;;;;3.70;3.20;;;38.00;13.10;;;;;;7340580;19;20455;-42
2022/04/19 13:19:55;;;;;;;4.60;3.80;;;37.60;13.50;;;;;;7365316;19;20423;-40
2022/04/19 13:22:28;;;;;;;4.53;4.07;;;36.70;13.90;;;;;;7364475;19;20407;-40
2022/04/19 13:25:01;;;;;;;4.53;3.50;;;35.80;13.90;;;;;;7371854;19;20468;-39
2022/04/19 13:27:35;;;;;;;4.43;4.03;;;33.90;15.40;;;;;;7372028;19;20372;-39
2022/04/19 13:30:09;;;;;;;3.50;3.20;;;32.80;15.80;;;;;;7374463;19;20415;-39
2022/04/19 13:32:42;;;;;;;5.57;3.50;;;31.90;16.30;;;;;;7374068;19;20739;-39
2022/04/19 13:35:12;;;;;;;6.87;5.00;;;31.20;17.00;;;;;;7370326;19;21295;-39
2022/04/19 13:40:26;;;;;;;4.90;3.80;;;28.50;18.70;;;;;;7373859;19;20858;-39
2022/04/19 13:42:56;;;;;;;4.90;3.83;;;27.80;19.40;;;;;;7372631;19;20443;-39
2022/04/19 13:45:28;;;;;;;4.27;3.10;;;27.20;19.50;;;;;;7374279;19;20397;-39
2022/04/19 13:48:01;;;;;;;6.80;4.03;;;26.60;20.10;;;;;;7373832;19;20475;-39
2022/04/19 13:50:32;;;;;;;5.57;3.90;;;26.40;20.40;;;;;;7376006;19;20373;-41
2022/04/19 13:53:02;;;;;;;3.30;3.00;;;25.90;20.80;;;;;;7370766;19;20951;-41
2022/04/19 13:55:32;;;;;;;4.97;3.17;;;25.60;21.50;;;;;;7377119;19;20384;-42
2022/04/19 13:58:01;;;;;;;4.63;3.30;;;25.20;21.50;;;;;;7375198;19;20360;-41
2022/04/19 14:00:36;;;;;;;5.33;3.53;;;24.80;21.90;;;;;;7367382;19;20980;-43
2022/04/19 14:03:05;;;;;;;5.53;3.70;;;24.00;23.10;;;;;;7367450;19;20669;-42
2022/04/19 14:05:35;;;;;;;3.90;3.20;;;23.90;23.50;;;;;;7372504;19;20387;-42
2022/04/19 14:08:05;;;;;;;5.30;4.07;;;24.00;23.20;;;;;;7371853;19;20512;-42
2022/04/19 14:10:37;;;;;;;5.20;4.50;;;23.70;23.40;;;;;;7368595;19;20971;-42
2022/04/19 14:13:07;;;;;;;5.00;3.57;;;23.50;23.30;;;;;;7373547;19;20965;-43